CheckWX is a tool to help pilots better visualize weather data.  It is not intended as a substitute for an official pre-flight weather briefing.

14:47:51 UTC

AGGA TAF
Auki Airport
Auki, Solomon Islands
TAF AGGA 222325Z 2300/2324 18008KT 9999 SCT019 SCT030 PROB30 INTER 2302/2309 5000 TSSH BKN017 FEW018CB

Mar-23@
00:00 UTC

Mar-23 @ 00:00 UTC

Mar-24@
00:00 UTC

Mar-24 @ 00:00 UTC

TAF AGGA 222325Z 2300/2324 18008KT 9999 SCT019 SCT030
Wind
  • 180° at 8 KTS
Cloud Levels
  • Scattered at 1,900' AGL
  • Scattered at 3,000' AGL

Mar-23@
02:00 UTC

Mar-23 @ 02:00 UTC

Mar-23@
09:00 UTC

Mar-23 @ 09:00 UTC

PROB30 INTER 2302/2309 5000 TSSH BKN017 FEW018CB

Expired

Conditions
Thunderstorm
Cloud Levels
  • Broken at 1,700' AGL
  • Few at 1,800' AGL